St Cloud Regional Airport St Cloud US
ICAO: KSTC
IATA: STC
Category: Medium
Scheduled Services: Yes

Elevation: 1031 ft
TransAlt. 18000 ft.

Airport Communications:
ASOS:118.25
ATIS:119.375
CLNC DEL:118.25
MINNEAPOLIS CNTR:121.05
CTAF:123.5
GND:121.6
PRINCETON RDO:122.5
TWR:118.25

KSTC Zoom In..

If you have problems with the map follow the link
https://www.worldairports.se/pages/airport.php?
ICAO=KSTC

Runways:

(A) RW 05 length 3000 ft width 75 ft
---- / hdg 56

(B) RW 13 length 7000 ft width 150 ft
ILS 111.90 / hdg 133

(C) RW 23 length 3000 ft width 75 ft
---- / hdg 236

(D) RW 31 length 7000 ft width 150 ft
ILS 111.90 / hdg 313

Location; KSTC
Day. 07 / Time. 08.53 Zulu
* Altimeter: 30.15
* Temperature: -05° c. -23°f.
* Wind from: 130° Speed 04 kn.
Dewpoint: -08° c.
Visibility: 10 Statute Miles.
Clouds: Overcast 2300 ft.

KSTC 070853Z AUTO 13004KT 10SM OVC023 M05/M08 A3015 RMK AO2 SLP237 T10501078 58013


Wind From 130°
Speed 04 kn.

 
 
jpsmedia worldairports.se 2019   terms of use